sensor_id;sensor_type;location;lat;lon;timestamp;pressure;altitude;pressure_sealevel;temperature;humidity
48800;BME280;34611;47.964;7.982;2024-01-11T00:01:23;97528.53;;;8.13;42.49
48800;BME280;34611;47.964;7.982;2024-01-11T00:08:23;97523.38;;;8.13;42.39
48800;BME280;34611;47.964;7.982;2024-01-11T00:15:23;97517.25;;;8.14;42.30
48800;BME280;34611;47.964;7.982;2024-01-11T00:22:23;97528.44;;;8.14;42.37
48800;BME280;34611;47.964;7.982;2024-01-11T00:29:24;97536.19;;;8.14;42.43
48800;BME280;34611;47.964;7.982;2024-01-11T00:36:24;97528.44;;;8.14;42.25
48800;BME280;34611;47.964;7.982;2024-01-11T00:43:24;97531.88;;;8.15;42.25
48800;BME280;34611;47.964;7.982;2024-01-11T00:50:25;97539.44;;;8.18;42.17
48800;BME280;34611;47.964;7.982;2024-01-11T00:57:25;97532.69;;;8.15;42.08
48800;BME280;34611;47.964;7.982;2024-01-11T01:04:25;97532.69;;;8.15;42.10
48800;BME280;34611;47.964;7.982;2024-01-11T01:11:25;97542.13;;;8.16;42.04
48800;BME280;34611;47.964;7.982;2024-01-11T01:18:26;97541.28;;;8.16;42.02
48800;BME280;34611;47.964;7.982;2024-01-11T01:25:26;97554.16;;;8.17;42.19
48800;BME280;34611;47.964;7.982;2024-01-11T01:32:26;97551.56;;;8.17;41.94
48800;BME280;34611;47.964;7.982;2024-01-11T01:39:26;97557.66;;;8.16;42.12
48800;BME280;34611;47.964;7.982;2024-01-11T01:46:27;97554.16;;;8.17;42.07
48800;BME280;34611;47.964;7.982;2024-01-11T01:53:27;97564.59;;;8.16;42.12
48800;BME280;34611;47.964;7.982;2024-01-11T02:00:31;97558.59;;;8.15;42.14
48800;BME280;34611;47.964;7.982;2024-01-11T02:07:31;97561.28;;;8.14;41.95
48800;BME280;34611;47.964;7.982;2024-01-11T02:14:32;97555.19;;;8.15;42.14
48800;BME280;34611;47.964;7.982;2024-01-11T02:21:32;97551.00;;;8.12;41.97
48800;BME280;34611;47.964;7.982;2024-01-11T02:28:33;97552.59;;;8.15;42.03
48800;BME280;34611;47.964;7.982;2024-01-11T02:35:33;97545.66;;;8.15;41.96
48800;BME280;34611;47.964;7.982;2024-01-11T02:42:34;97552.47;;;8.16;41.93
48800;BME280;34611;47.964;7.982;2024-01-11T02:49:35;97551.66;;;8.16;42.02
48800;BME280;34611;47.964;7.982;2024-01-11T02:56:35;97546.38;;;8.17;42.01
48800;BME280;34611;47.964;7.982;2024-01-11T03:03:35;97552.47;;;8.16;41.89
48800;BME280;34611;47.964;7.982;2024-01-11T03:10:39;97552.47;;;8.16;41.79
48800;BME280;34611;47.964;7.982;2024-01-11T03:17:40;97557.66;;;8.16;41.73
48800;BME280;34611;47.964;7.982;2024-01-11T03:24:40;97554.25;;;8.16;41.71
48800;BME280;34611;47.964;7.982;2024-01-11T03:31:40;97558.50;;;8.17;41.54
48800;BME280;34611;47.964;7.982;2024-01-11T03:38:42;97550.81;;;8.15;41.94
48800;BME280;34611;47.964;7.982;2024-01-11T03:45:42;97550.91;;;8.14;41.71
48800;BME280;34611;47.964;7.982;2024-01-11T03:52:43;97549.25;;;8.13;41.77
48800;BME280;34611;47.964;7.982;2024-01-11T03:59:44;97552.59;;;8.15;41.73
48800;BME280;34611;47.964;7.982;2024-01-11T04:06:45;97544.19;;;8.11;41.59
48800;BME280;34611;47.964;7.982;2024-01-11T04:13:45;97547.69;;;8.10;41.59
48800;BME280;34611;47.964;7.982;2024-01-11T04:20:45;97545.66;;;8.15;41.74
48800;BME280;34611;47.964;7.982;2024-01-11T04:27:45;97549.34;;;8.11;41.78
48800;BME280;34611;47.964;7.982;2024-01-11T04:34:46;97546.69;;;8.13;41.75
48800;BME280;34611;47.964;7.982;2024-01-11T04:41:46;97534.47;;;8.15;41.75
48800;BME280;34611;47.964;7.982;2024-01-11T04:48:47;97549.16;;;8.14;41.77
48800;BME280;34611;47.964;7.982;2024-01-11T04:55:48;97546.47;;;8.16;41.72
48800;BME280;34611;47.964;7.982;2024-01-11T05:02:49;97534.47;;;8.15;41.84
48800;BME280;34611;47.964;7.982;2024-01-11T05:09:49;97529.47;;;8.11;41.65
48800;BME280;34611;47.964;7.982;2024-01-11T05:16:49;97530.50;;;8.09;41.75
48800;BME280;34611;47.964;7.982;2024-01-11T05:23:50;97533.16;;;8.07;41.65
48800;BME280;34611;47.964;7.982;2024-01-11T05:30:51;97536.50;;;8.09;41.80
48800;BME280;34611;47.964;7.982;2024-01-11T05:37:51;97540.13;;;8.07;41.78
48800;BME280;34611;47.964;7.982;2024-01-11T05:44:52;97551.16;;;7.96;41.72
48800;BME280;34611;47.964;7.982;2024-01-11T05:51:52;97545.22;;;8.08;41.87
48800;BME280;34611;47.964;7.982;2024-01-11T05:58:53;97559.72;;;8.11;41.99
48800;BME280;34611;47.964;7.982;2024-01-11T06:05:53;97560.19;;;8.03;41.95
48800;BME280;34611;47.964;7.982;2024-01-11T06:12:53;97565.09;;;7.94;41.71
48800;BME280;34611;47.964;7.982;2024-01-11T06:19:53;97577.41;;;7.90;41.82
48800;BME280;34611;47.964;7.982;2024-01-11T06:26:54;97576.38;;;7.93;41.85
48800;BME280;34611;47.964;7.982;2024-01-11T06:33:54;97575.56;;;7.92;41.80
48800;BME280;34611;47.964;7.982;2024-01-11T06:40:55;97583.50;;;7.89;41.75
48800;BME280;34611;47.964;7.982;2024-01-11T06:47:55;97588.88;;;7.86;41.75
48800;BME280;34611;47.964;7.982;2024-01-11T06:54:56;97596.66;;;7.86;41.84
48800;BME280;34611;47.964;7.982;2024-01-11T07:01:57;97604.03;;;7.92;41.75
48800;BME280;34611;47.964;7.982;2024-01-11T07:08:57;97606.63;;;7.92;41.54
48800;BME280;34611;47.964;7.982;2024-01-11T07:15:58;97607.38;;;7.94;41.87
48800;BME280;34611;47.964;7.982;2024-01-11T07:22:59;97612.53;;;7.94;41.77
48800;BME280;34611;47.964;7.982;2024-01-11T07:29:59;97614.38;;;7.92;41.72
48800;BME280;34611;47.964;7.982;2024-01-11T07:37:02;97611.81;;;7.92;41.76
48800;BME280;34611;47.964;7.982;2024-01-11T07:44:02;97619.38;;;7.95;41.58
48800;BME280;34611;47.964;7.982;2024-01-11T07:51:03;97621.97;;;7.95;41.62
48800;BME280;34611;47.964;7.982;2024-01-11T07:58:04;97627.06;;;7.97;41.68
48800;BME280;34611;47.964;7.982;2024-01-11T08:05:05;97627.13;;;7.95;41.64
48800;BME280;34611;47.964;7.982;2024-01-11T08:12:05;97628.97;;;7.93;41.64
48800;BME280;34611;47.964;7.982;2024-01-11T08:19:05;97641.75;;;7.96;41.67
48800;BME280;34611;47.964;7.982;2024-01-11T08:26:06;97655.44;;;7.98;41.57
48800;BME280;34611;47.964;7.982;2024-01-11T08:33:06;97654.13;;;8.05;41.75
48800;BME280;34611;47.964;7.982;2024-01-11T08:40:07;97653.09;;;8.08;41.87
48800;BME280;34611;47.964;7.982;2024-01-11T08:47:07;97647.09;;;8.07;41.75
48800;BME280;34611;47.964;7.982;2024-01-11T08:54:09;97653.97;;;8.08;41.88
48800;BME280;34611;47.964;7.982;2024-01-11T09:01:11;97653.75;;;8.11;41.95
48800;BME280;34611;47.964;7.982;2024-01-11T09:08:11;97660.63;;;8.13;42.06
48800;BME280;34611;47.964;7.982;2024-01-11T09:15:12;97662.28;;;8.14;42.15
48800;BME280;34611;47.964;7.982;2024-01-11T09:22:12;97669.00;;;8.16;42.09
48800;BME280;34611;47.964;7.982;2024-01-11T09:29:12;97664.50;;;8.20;42.18
48800;BME280;34611;47.964;7.982;2024-01-11T09:36:13;97679.19;;;8.19;42.20
48800;BME280;34611;47.964;7.982;2024-01-11T09:43:14;97679.09;;;8.21;42.08
48800;BME280;34611;47.964;7.982;2024-01-11T09:50:15;97692.16;;;8.19;42.12
48800;BME280;34611;47.964;7.982;2024-01-11T09:57:19;97702.41;;;8.21;42.26
48800;BME280;34611;47.964;7.982;2024-01-11T10:04:24;97704.16;;;8.20;42.24
48800;BME280;34611;47.964;7.982;2024-01-11T10:11:25;97725.72;;;8.21;42.36
48800;BME280;34611;47.964;7.982;2024-01-11T10:18:25;97717.13;;;8.20;42.34
48800;BME280;34611;47.964;7.982;2024-01-11T10:25:25;97711.09;;;8.20;42.28
48800;BME280;34611;47.964;7.982;2024-01-11T10:32:28;97704.91;;;8.22;42.40
48800;BME280;34611;47.964;7.982;2024-01-11T10:39:30;97690.09;;;8.24;42.23
48800;BME280;34611;47.964;7.982;2024-01-11T10:46:31;97674.09;;;8.18;42.25
48800;BME280;34611;47.964;7.982;2024-01-11T11:00:45;97626.75;;;8.16;42.36
48800;BME280;34611;47.964;7.982;2024-01-11T11:07:49;97624.91;;;8.18;42.40
48800;BME280;34611;47.964;7.982;2024-01-11T11:14:49;97616.94;;;8.21;42.36
48800;BME280;34611;47.964;7.982;2024-01-11T11:21:50;97620.25;;;8.23;42.45
48800;BME280;34611;47.964;7.982;2024-01-11T11:28:50;97602.69;;;8.28;42.48
48800;BME280;34611;47.964;7.982;2024-01-11T11:35:55;97594.81;;;8.29;42.80
48800;BME280;34611;47.964;7.982;2024-01-11T11:42:57;97599.06;;;8.30;42.57
48800;BME280;34611;47.964;7.982;2024-01-11T11:57:04;97641.91;;;8.36;42.94
48800;BME280;34611;47.964;7.982;2024-01-11T12:04:04;97642.63;;;8.38;42.93
48800;BME280;34611;47.964;7.982;2024-01-11T12:11:05;97643.38;;;8.40;43.11
48800;BME280;34611;47.964;7.982;2024-01-11T12:18:05;97634.69;;;8.41;43.06
48800;BME280;34611;47.964;7.982;2024-01-11T12:25:07;97625.22;;;8.40;43.04
48800;BME280;34611;47.964;7.982;2024-01-11T12:32:07;97627.81;;;8.40;42.99
48800;BME280;34611;47.964;7.982;2024-01-11T12:39:11;97636.72;;;8.36;42.98
48800;BME280;34611;47.964;7.982;2024-01-11T12:46:13;97630.72;;;8.36;42.79
48800;BME280;34611;47.964;7.982;2024-01-11T12:53:14;97630.78;;;8.34;42.85
48800;BME280;34611;47.964;7.982;2024-01-11T13:00:20;97642.81;;;8.35;42.76
48800;BME280;34611;47.964;7.982;2024-01-11T13:07:21;97628.84;;;8.38;42.84
48800;BME280;34611;47.964;7.982;2024-01-11T13:14:23;97621.81;;;8.40;42.98
48800;BME280;34611;47.964;7.982;2024-01-11T13:21:23;97608.00;;;8.39;43.08
48800;BME280;34611;47.964;7.982;2024-01-11T13:28:23;97594.16;;;8.40;43.15
48800;BME280;34611;47.964;7.982;2024-01-11T13:35:24;97569.16;;;8.39;42.92
48800;BME280;34611;47.964;7.982;2024-01-11T13:42:24;97575.19;;;8.40;42.93
48800;BME280;34611;47.964;7.982;2024-01-11T13:49:24;97569.16;;;8.39;43.04
48800;BME280;34611;47.964;7.982;2024-01-11T13:56:25;97589.25;;;8.36;42.97
48800;BME280;34611;47.964;7.982;2024-01-11T14:03:25;97604.44;;;8.42;43.04
48800;BME280;34611;47.964;7.982;2024-01-11T14:10:25;97610.38;;;8.44;43.19
48800;BME280;34611;47.964;7.982;2024-01-11T14:17:26;97616.38;;;8.44;43.15
48800;BME280;34611;47.964;7.982;2024-01-11T14:24:26;97614.44;;;8.48;43.17
48800;BME280;34611;47.964;7.982;2024-01-11T14:31:27;97626.00;;;8.42;43.16
48800;BME280;34611;47.964;7.982;2024-01-11T14:38:27;97640.34;;;8.34;43.00
48800;BME280;34611;47.964;7.982;2024-01-11T14:45:27;97638.56;;;8.34;42.90
48800;BME280;34611;47.964;7.982;2024-01-11T14:52:28;97652.44;;;8.33;42.99
48800;BME280;34611;47.964;7.982;2024-01-11T14:59:28;97658.19;;;8.24;42.86
48800;BME280;34611;47.964;7.982;2024-01-11T15:06:28;97682.91;;;8.29;42.88
48800;BME280;34611;47.964;7.982;2024-01-11T15:13:28;97694.63;;;8.35;42.93
48800;BME280;34611;47.964;7.982;2024-01-11T15:20:29;97710.91;;;8.37;43.05
48800;BME280;34611;47.964;7.982;2024-01-11T15:27:29;97716.94;;;8.38;42.92
48800;BME280;34611;47.964;7.982;2024-01-11T15:34:30;97710.06;;;8.37;42.82
48800;BME280;34611;47.964;7.982;2024-01-11T15:41:30;97724.72;;;8.38;42.83
48800;BME280;34611;47.964;7.982;2024-01-11T15:48:30;97737.75;;;8.36;42.81
48800;BME280;34611;47.964;7.982;2024-01-11T15:55:31;97748.97;;;8.51;43.07
48800;BME280;34611;47.964;7.982;2024-01-11T16:02:31;97752.75;;;8.60;43.82
48800;BME280;34611;47.964;7.982;2024-01-11T16:09:31;97755.16;;;8.63;43.74
48800;BME280;34611;47.964;7.982;2024-01-11T16:16:35;97767.09;;;8.65;43.98
48800;BME280;34611;47.964;7.982;2024-01-11T16:23:35;97747.03;;;8.69;43.93
48800;BME280;34611;47.964;7.982;2024-01-11T16:30:35;97739.97;;;8.71;44.00
48800;BME280;34611;47.964;7.982;2024-01-11T16:37:36;97752.72;;;8.74;44.20
48800;BME280;34611;47.964;7.982;2024-01-11T16:44:36;97763.03;;;8.76;44.12
48800;BME280;34611;47.964;7.982;2024-01-11T16:51:45;97769.84;;;8.77;44.23
48800;BME280;34611;47.964;7.982;2024-01-11T16:58:46;97761.06;;;8.79;44.18
48800;BME280;34611;47.964;7.982;2024-01-11T17:05:46;97773.00;;;8.82;44.25
48800;BME280;34611;47.964;7.982;2024-01-11T17:12:46;97779.84;;;8.83;44.34
48800;BME280;34611;47.964;7.982;2024-01-11T17:19:47;97785.78;;;8.85;44.51
48800;BME280;34611;47.964;7.982;2024-01-11T17:26:47;97789.22;;;8.85;44.33
48800;BME280;34611;47.964;7.982;2024-01-11T17:33:47;97801.25;;;8.86;44.50
48800;BME280;34611;47.964;7.982;2024-01-11T17:40:48;97809.75;;;8.88;44.54
48800;BME280;34611;47.964;7.982;2024-01-11T17:47:48;97798.44;;;8.89;44.67
48800;BME280;34611;47.964;7.982;2024-01-11T17:54:48;97787.16;;;8.90;44.65
48800;BME280;34611;47.964;7.982;2024-01-11T18:01:48;97768.06;;;8.91;44.69
48800;BME280;34611;47.964;7.982;2024-01-11T18:08:48;97768.81;;;8.94;44.75
48800;BME280;34611;47.964;7.982;2024-01-11T18:15:49;97779.19;;;8.94;44.91
48800;BME280;34611;47.964;7.982;2024-01-11T18:22:49;97787.69;;;8.96;44.76
48800;BME280;34611;47.964;7.982;2024-01-11T18:29:51;97802.34;;;8.97;44.78
48800;BME280;34611;47.964;7.982;2024-01-11T18:36:52;97817.91;;;8.97;44.91
48800;BME280;34611;47.964;7.982;2024-01-11T18:43:53;97804.00;;;8.98;45.05
48800;BME280;34611;47.964;7.982;2024-01-11T18:50:53;97803.06;;;8.99;44.91
48800;BME280;34611;47.964;7.982;2024-01-11T18:57:53;97775.44;;;9.12;45.39
48800;BME280;34611;47.964;7.982;2024-01-11T19:04:55;97777.47;;;8.80;44.79
48800;BME280;34611;47.964;7.982;2024-01-11T19:11:55;97790.13;;;8.70;44.03
48800;BME280;34611;47.964;7.982;2024-01-11T19:18:58;97799.97;;;8.65;43.75
48800;BME280;34611;47.964;7.982;2024-01-11T19:25:59;97806.25;;;8.61;43.52
48800;BME280;34611;47.964;7.982;2024-01-11T19:33:00;97843.66;;;8.57;43.35
48800;BME280;34611;47.964;7.982;2024-01-11T19:40:02;97853.28;;;8.55;43.28
48800;BME280;34611;47.964;7.982;2024-01-11T19:47:04;97851.78;;;8.50;43.41
48800;BME280;34611;47.964;7.982;2024-01-11T19:54:04;97852.25;;;8.43;43.04
48800;BME280;34611;47.964;7.982;2024-01-11T20:01:05;97852.53;;;8.53;42.87
48800;BME280;34611;47.964;7.982;2024-01-11T20:08:05;97845.13;;;8.46;43.93
48800;BME280;34611;47.964;7.982;2024-01-11T20:15:06;97847.22;;;8.40;43.39
48800;BME280;34611;47.964;7.982;2024-01-11T20:22:07;97855.25;;;8.35;42.85
48800;BME280;34611;47.964;7.982;2024-01-11T20:29:09;97856.19;;;8.34;42.73
48800;BME280;34611;47.964;7.982;2024-01-11T20:36:09;97844.88;;;8.35;42.77
48800;BME280;34611;47.964;7.982;2024-01-11T20:43:09;97843.22;;;8.34;42.71
48800;BME280;34611;47.964;7.982;2024-01-11T20:50:11;97840.63;;;8.34;42.69
48800;BME280;34611;47.964;7.982;2024-01-11T20:57:11;97850.25;;;8.32;42.61
48800;BME280;34611;47.964;7.982;2024-01-11T21:04:11;97856.34;;;8.31;42.47
48800;BME280;34611;47.964;7.982;2024-01-11T21:11:12;97866.91;;;8.28;42.70
48800;BME280;34611;47.964;7.982;2024-01-11T21:18:16;97875.41;;;8.30;42.64
48800;BME280;34611;47.964;7.982;2024-01-11T21:25:16;97870.22;;;8.30;42.51
48800;BME280;34611;47.964;7.982;2024-01-11T21:32:16;97876.50;;;8.26;42.36
48800;BME280;34611;47.964;7.982;2024-01-11T21:39:18;97879.19;;;8.24;42.31
48800;BME280;34611;47.964;7.982;2024-01-11T21:46:19;97892.97;;;8.25;42.16
48800;BME280;34611;47.964;7.982;2024-01-11T21:53:19;97891.47;;;8.21;42.03
48800;BME280;34611;47.964;7.982;2024-01-11T22:00:19;97881.03;;;8.22;42.18
48800;BME280;34611;47.964;7.982;2024-01-11T22:07:20;97875.78;;;8.24;42.16
48800;BME280;34611;47.964;7.982;2024-01-11T22:14:20;97883.63;;;8.22;41.97
48800;BME280;34611;47.964;7.982;2024-01-11T22:21:20;97887.31;;;8.18;41.90
48800;BME280;34611;47.964;7.982;2024-01-11T22:28:20;97873.53;;;8.18;41.93
48800;BME280;34611;47.964;7.982;2024-01-11T22:35:21;97864.94;;;8.17;41.90
48800;BME280;34611;47.964;7.982;2024-01-11T22:42:21;97867.59;;;8.16;42.08
48800;BME280;34611;47.964;7.982;2024-01-11T22:49:21;97858.00;;;8.18;42.17
48800;BME280;34611;47.964;7.982;2024-01-11T22:56:22;97846.63;;;8.20;42.16
48800;BME280;34611;47.964;7.982;2024-01-11T23:03:22;97842.44;;;8.18;42.13
48800;BME280;34611;47.964;7.982;2024-01-11T23:10:24;97840.88;;;8.15;42.05
48800;BME280;34611;47.964;7.982;2024-01-11T23:17:24;97854.50;;;8.19;42.18
48800;BME280;34611;47.964;7.982;2024-01-11T23:24:25;97856.34;;;8.17;42.01
48800;BME280;34611;47.964;7.982;2024-01-11T23:31:25;97863.25;;;8.16;42.03
48800;BME280;34611;47.964;7.982;2024-01-11T23:38:25;97871.97;;;8.15;41.99
48800;BME280;34611;47.964;7.982;2024-01-11T23:45:26;97873.72;;;8.15;41.85
48800;BME280;34611;47.964;7.982;2024-01-11T23:52:26;97871.13;;;8.15;41.89
48800;BME280;34611;47.964;7.982;2024-01-11T23:59:26;97880.75;;;8.13;41.68
